航空気象通報

ウインドサーファーのための航空気象通報による風予報です。

1/30-2/1の航空気象通報

2017年01月30日 22時04分59秒 | TAF
羽田空港
TAF RJTT 301105Z 3012/3118 34018KT 9999 FEW030
TEMPO 3012/3019 34025G35KT
BECMG 3109/3112 35008KT
日本時間30日21時-31日18時:340度から18ノットの風
但し、30日21時-31日04時の間:ときどき340度から25ノット、突風35ノット
31日18-21時:風が変化
21時-1日03時:350度から8ノットの風


静岡空港
TAF RJNS 301105Z 3012/3118 27015KT 9999 FEW030
BECMG 3100/3103 15005KT
BECMG 3109/3112 29008KT
日本時間30日21時-31日09時:270度から15ノットの風
09-12時:風が変化
12-18時:150度から5ノットの風
18-21時:風が変化
21時-1日03時:290度から8ノットの風


福岡空港
TAF RJFF 301107Z 3012/3118 34011KT 9999 FEW020 BKN045
BECMG 3016/3018 14005KT
BECMG 3103/3106 32008KT
BECMG 3109/3112 15005KT
日本時間30日21時-31日01時:340度から11ノットの風
01-03時:風が変化
03-12時:140度から5ノットの風
12-15時:風が変化
15-18時:320度から8ノットの風
18-21時:風が変化
21時-1日03時:150度から5ノットの風


那覇空港
TAF ROAH 301113Z 3012/3118 01021KT 9999 FEW020 SCT040
BECMG 3017/3019 04011KT
日本時間30日21時-31日02時:010度から21ノットの風
02-04時:風が変化
04時-1日03時:040度から11ノットの風


石垣空港
TAF ROIG 301116Z 3012/3118 03018KT 9999 FEW010 SCT020 BKN040
TEMPO 3012/3015 02020G30KT
日本時間30日21時-1日03時:030度から18ノットの風
但し、30日21-24時の間:ときどき020度から20ノット、突風30ノット


マウイのカフルイ空港
PHOG 301140Z 3012/3112 02015KT P6SM BKN045
FM302000 04020G28KT P6SM SCT045
FM310400 04012G20KT P6SM SCT045 AMD LTD TO VIS AND WIND TIL 301600
ハワイ時間30日02-10時:020度から15ノットの風

10-18時:040度から20ノット、突風28ノット
18時-31日02時:040度から12ノット、突風20ノット


サイパン空港
TAF PGSN 301120Z 3012/3112 10012KT P6SM VCSH SCT020 SCT040
マリアナ時間30日22時-31日22時:100度から12ノットの風

コメント

1/29-1/31の航空気象通報

2017年01月29日 22時00分21秒 | TAF
羽田空港
TAF RJTT 291105Z 2912/3018 32004KT 8000 -RA FEW015 BKN030
BECMG 2922/2924 23018KT
TEMPO 3000/3003 23028G40KT
BECMG 3003/3006 34016KT
TEMPO 3009/3018 34022G32KT
日本時間29日21時-30日07時:320度から4ノットの風
07-09時:風が変化
09-12時:230度から18ノットの風
但し、09-12時の間:ときどき230度から28ノット、突風40ノット
12-15時:風が変化
15時-31日03時:340度から16ノットの風
但し、30日18時-31日03時の間:ときどき340度から22ノット、突風32ノット


静岡空港
TAF RJNS 291106Z 2912/3018 29006KT 6000 -SHRA FEW008 BKN015
TEMPO 2914/2919 3000 SHRA BR FEW003 BKN005
BECMG 2919/2921 27018KT
TEMPO 3000/3009 27028G38KT
日本時間29日21時-30日04時:290度から6ノットの風
04-06時:風が変化
06時-31日03時:270度から18ノットの風
但し、30日09-18時の間:ときどき270度から28ノット、突風38ノット


福岡空港
TAF RJFF 291105Z 2912/3018 20004KT 8000 -SHRA FEW010 SCT020 BKN030
BECMG 2918/2920 32014KT
TEMPO 2919/2924 28015G25KT 4000 -SHRA BR
TEMPO 3000/3009 32015G25KT
日本時間29日21時-30日03時:200度から4ノットの風
03-05時:風が変化
05時-31日03時:320度から14ノットの風
但し、30日04-18時の間:ときどき280度から15ノット、突風25ノット


那覇空港
TAF ROAH 291105Z 2912/3018 17006KT 9999 FEW025 SCT040
BECMG 3000/3003 01018KT
日本時間29日21時-30日09時:170度から6ノットの風
09-12時:風が変化
12時-31日03時:010度から18ノットの風


石垣空港
TAF ROIG 291107Z 2912/3018 12006KT 9999 FEW020 SCT040
BECMG 3000/3003 03018KT
日本時間29日21時-30日09時:120度から6ノットの風
09-12時:風が変化
12時-31日03時:030度から18ノットの風


マウイのカフルイ空港
PHOG 291137Z 2912/3012 03010KT P6SM VCSH SCT025 BKN035
TEMPO 2912/2916 5SM -SHRA BR BKN025
FM291600 03018G25KT P6SM VCSH SCT025 BKN040
FM300200 03015KT P6SM SCT025 SCT040 AMD LTD TO VIS AND WIND TIL 291600
ハワイ時間29日02-06時:030度から10ノットの風
06-16時:030度から18ノット、突風25ノット
、但し、29日02-06時の間:ときどき
16時-30日02時:030度から15ノットの風


サイパン空港
TAF PGSN 291124Z 2912/3012 08015KT P6SM VCSH SCT020 BKN110
マリアナ時間29日22時-30日22時:080度から15ノットの風
コメント

1/28-1/30の航空気象通報

2017年01月28日 21時49分00秒 | TAF
羽田空港
TAF RJTT 281105Z 2812/2918 09006KT 9999 FEW020 SCT030
BECMG 2812/2814 35008KT
BECMG 2903/2906 14008KT
BECMG 2912/2915 27004KT
日本時間28日21時:090度から6ノットの風
21-23時:風が変化
23時-29日12時:350度から8ノットの風
12-15時:風が変化
15-21時:140度から8ノットの風
21-24時:風が変化
30日00-03時:270度から4ノットの風


静岡空港
TAF RJNS 281105Z 2812/2918 30006KT 9999 FEW030
BECMG 2900/2903 24012KT
TEMPO 2915/2918 4000 -SHRA BR FEW005 BKN008
日本時間28日21時-29日09時:300度から6ノットの風
09-12時:風が変化
12時-30日03時:240度から12ノットの風

但し、30日00-03時の間:ときどき

福岡空港
TAF RJFF 281107Z 2812/2918 15005KT 9999 FEW030
BECMG 2915/2918 27009KT
日本時間28日21時-29日24時:150度から5ノットの風
30日00-03時:風が変化
03時:270度から9ノットの風


那覇空港
TAF ROAH 281107Z 2812/2918 11007KT 9999 FEW020 BKN035
日本時間28日21時-30日03時:110度から7ノットの風


石垣空港
TAF ROIG 281112Z 2812/2918 12007KT 9999 FEW030 BKN045
BECMG 2816/2818 15005KT
日本時間28日21時-29日01時:120度から7ノットの風
01-03時:風が変化
03時-30日03時:150度から5ノットの風


マウイのカフルイ空港
PHOG 281139Z 2812/2912 07005KT P6SM FEW025 SCT050
FM282100 03012KT P6SM FEW025 SCT050 AMD LTD TO VIS AND WIND TIL 281600
ハワイ時間28日02-11時:070度から5ノットの風
11時-29日02時:030度から12ノットの風


サイパン空港
PGSN 281225Z 2812/2912 09011KT P6SM VCSH SCT017 BKN110
TEMPO 2812/2814 13011G20KT 3SM SHRA SCT012 BKN025
マリアナ時間28日22時-29日22時:090度から11ノットの風
但し、28日22-24時の間:ときどき130度から11ノット、突風20ノット

但し、28日22-24時の間:ときどき
コメント

1/26-1/28の航空気象通報

2017年01月26日 23時55分22秒 | TAF
羽田空港
TAF RJTT 261105Z 2612/2718 20008KT 9999 FEW030 SCT045
BECMG 2618/2620 21018KT
BECMG 2621/2623 21022G32KT
TEMPO 2700/2706 21032G42KT
BECMG 2709/2712 23012KT
BECMG 2712/2715 34014KT
日本時間26日21時-27日03時:200度から8ノットの風
03-05時:風が変化
05-06時:210度から18ノットの風
06-08時:風が変化
08-18時:210度から22ノット、突風32ノット
但し、09-15時の間:ときどき210度から32ノット、突風42ノット
18-21時:風が変化
21時:230度から12ノットの風
21-24時:風が変化
28日00-03時:340度から14ノットの風


静岡空港
TAF RJNS 261105Z 2612/2718 28010KT 9999 FEW030
日本時間26日21時-28日03時:280度から10ノットの風


福岡空港
TAF RJFF 261110Z 2612/2718 15007KT 9999 FEW035
BECMG 2700/2703 29012KT
BECMG 2709/2712 01006KT
BECMG 2712/2715 13003KT
日本時間26日21時-27日09時:150度から7ノットの風
09-12時:風が変化
12-18時:290度から12ノットの風
18-21時:風が変化
21時:010度から6ノットの風
21時-28日03時:130度から3ノットの風


那覇空港
TAF ROAH 261105Z 2612/2718 04006KT 9999 FEW040
日本時間26日21時-28日03時:040度から6ノットの風


石垣空港
TAF ROIG 261107Z 2612/2718 07010KT 9999 SCT030
日本時間26日21時-28日03時:070度から10ノットの風


マウイのカフルイ空港
PHOG 261121Z 2612/2712 06011KT P6SM SCT045
FM262000 06015G23KT P6SM FEW030 SCT050
FM270600 08009KT P6SM FEW050 AMD LTD TO VIS AND WIND TIL 261600
ハワイ時間26日02-10時:060度から11ノットの風
10-20時:060度から15ノット、突風23ノット
20時-27日02時:080度から9ノットの風


サイパン空港
TAF PGSN 261120Z 2612/2712 06015KT P6SM VCSH FEW020 SCT040 SCT100
TEMPO 2612/2615 06015G25KT 5SM -SHRA SCT020 BKN030 OVC080
FM262200 06016G26KT P6SM VCSH SCT015 BKN060
マリアナ時間26日22時-27日08時:060度から15ノットの風
但し、26日22時-27日01時の間:ときどき060度から15ノット、突風25ノット
08-22時:060度から16ノット、突風26ノット

但し、26日22時-27日01時の間:ときどき
コメント

1/25-1/27の航空気象通報

2017年01月25日 21時45分20秒 | TAF
羽田空港
TAF RJTT 251105Z 2512/2618 34012KT 9999 FEW030
BECMG 2603/2606 14008KT
BECMG 2615/2618 20015KT
日本時間25日21時-26日12時:340度から12ノットの風
12-15時:風が変化
15-24時:140度から8ノットの風
27日00-03時:風が変化
03時:200度から15ノットの風


静岡空港
TAF RJNS 251106Z 2512/2618 34005KT 9999 FEW030
BECMG 2600/2603 20005KT
BECMG 2606/2609 28008KT
日本時間25日21時-26日09時:340度から5ノットの風
09-12時:風が変化
12-15時:200度から5ノットの風
15-18時:風が変化
18時-27日03時:280度から8ノットの風


福岡空港
TAF RJFF 251106Z 2512/2618 14005KT 9999 FEW035
BECMG 2603/2606 30006KT
BECMG 2609/2612 14005KT
日本時間25日21時-26日12時:140度から5ノットの風
12-15時:風が変化
15-18時:300度から6ノットの風
18-21時:風が変化
21時-27日03時:140度から5ノットの風


那覇空港
TAF ROAH 251106Z 2512/2618 03010KT 9999 FEW030 BKN045
日本時間25日21時-27日03時:030度から10ノットの風


石垣空港
TAF ROIG 251111Z 2512/2618 04020KT 9999 -RA FEW007 BKN020
TEMPO 2512/2517 4000 SHRA
BECMG 2615/2618 07009KT
日本時間25日21時-26日24時:040度から20ノットの風
27日00-03時:風が変化
03時:070度から9ノットの風


マウイのカフルイ空港
PHOG 251136Z 2512/2612 03012KT P6SM FEW025 SCT040
FM252000 05018G24KT P6SM FEW025 SCT040
FM260500 05012G18KT P6SM FEW025 SCT040 AMD LTD TO VIS AND WIND TIL 251600
ハワイ時間25日02-10時:030度から12ノットの風
10-19時:050度から18ノット、突風24ノット
19時-26日02時:050度から12ノット、突風18ノット


サイパン空港
TAF PGSN 251127Z 2512/2612 04012G20KT P6SM VCSH SCT021 SCT040 BKN060
マリアナ時間25日22時-26日22時:040度から12ノット、突風20ノット

コメント